createdAt,value
2023-05-05T00:01:33.321Z,2.50
2023-05-05T00:04:00.440Z,2.35
2023-05-05T00:06:28.706Z,2.50
2023-05-05T00:08:56.656Z,2.70
2023-05-05T00:11:23.932Z,2.50
2023-05-05T00:13:51.692Z,2.55
2023-05-05T00:16:18.806Z,2.50
2023-05-05T00:18:45.862Z,2.70
2023-05-05T00:21:13.103Z,2.40
2023-05-05T00:23:40.089Z,2.70
2023-05-05T00:26:07.073Z,2.53
2023-05-05T00:28:34.124Z,2.75
2023-05-05T00:31:01.781Z,2.65
2023-05-05T00:33:28.920Z,2.65
2023-05-05T00:35:56.055Z,2.67
2023-05-05T00:38:23.428Z,2.42
2023-05-05T00:40:50.379Z,2.80
2023-05-05T00:43:17.437Z,2.67
2023-05-05T00:50:11.195Z,2.80
2023-05-05T00:52:39.292Z,2.53
2023-05-05T00:55:08.183Z,2.63
2023-05-05T00:57:36.257Z,2.63
2023-05-05T01:00:04.970Z,2.57
2023-05-05T01:02:33.534Z,2.90
2023-05-05T01:05:01.210Z,3.07
2023-05-05T01:07:43.725Z,2.60
2023-05-05T01:10:21.075Z,3.07
2023-05-05T01:13:22.593Z,2.53
2023-05-05T01:16:13.992Z,2.67
2023-05-05T01:18:50.249Z,2.97
2023-05-05T01:21:23.816Z,2.80
2023-05-05T01:24:22.157Z,2.87
2023-05-05T01:27:30.747Z,2.70
2023-05-05T01:30:16.800Z,2.73
2023-05-05T01:32:55.555Z,2.60
2023-05-05T01:35:36.315Z,2.50
2023-05-05T01:38:12.169Z,2.60
2023-05-05T01:40:52.509Z,2.53
2023-05-05T01:43:23.663Z,2.80
2023-05-05T01:45:54.216Z,3.00
2023-05-05T01:48:23.806Z,2.87
2023-05-05T01:50:53.466Z,2.73
2023-05-05T01:53:23.562Z,2.60
2023-05-05T01:55:52.637Z,2.60
2023-05-05T01:58:23.747Z,2.67
2023-05-05T02:00:53.948Z,2.77
2023-05-05T02:03:23.902Z,2.77
2023-05-05T02:05:53.374Z,2.33
2023-05-05T02:08:21.970Z,2.43
2023-05-05T02:10:51.723Z,2.40
2023-05-05T02:13:20.881Z,3.00
2023-05-05T02:15:50.125Z,2.77
2023-05-05T02:18:18.930Z,2.40
2023-05-05T02:20:47.619Z,2.87
2023-05-05T02:23:15.069Z,2.80
2023-05-05T02:25:46.086Z,2.63
2023-05-05T02:28:21.680Z,2.90
2023-05-05T02:30:56.830Z,2.60
2023-05-05T02:33:27.116Z,2.83
2023-05-05T02:35:56.952Z,3.13
2023-05-05T02:38:29.912Z,2.90
2023-05-05T02:41:04.092Z,2.83
2023-05-05T02:43:33.029Z,2.83
2023-05-05T02:46:01.336Z,2.77
2023-05-05T02:57:04.380Z,2.70
2023-05-05T03:00:05.725Z,2.80
2023-05-05T03:02:42.198Z,2.63
2023-05-05T03:05:14.956Z,2.80
2023-05-05T03:08:02.294Z,2.77
2023-05-05T03:10:44.109Z,2.70
2023-05-05T03:13:12.245Z,2.67
2023-05-05T03:15:48.061Z,2.70
2023-05-05T03:18:18.973Z,2.83
2023-05-05T03:20:52.082Z,2.70
2023-05-05T03:23:21.165Z,2.67
2023-05-05T03:25:51.624Z,2.47
2023-05-05T03:28:41.869Z,2.70
2023-05-05T03:31:18.958Z,2.60
2023-05-05T03:33:50.918Z,2.57
2023-05-05T03:36:21.543Z,3.17
2023-05-05T03:38:48.900Z,2.70
2023-05-05T03:41:17.843Z,2.50
2023-05-05T03:43:45.108Z,3.00
2023-05-05T03:46:12.648Z,3.00
2023-05-05T03:48:41.799Z,3.07
2023-05-05T03:51:09.090Z,2.97
2023-05-05T03:53:36.387Z,2.93
2023-05-05T03:56:06.454Z,2.87
2023-05-05T03:58:33.652Z,2.73
2023-05-05T04:01:00.817Z,3.07
2023-05-05T04:03:28.147Z,2.67
2023-05-05T04:05:55.961Z,2.90
2023-05-05T04:08:23.221Z,2.87
2023-05-05T04:10:51.134Z,2.97
2023-05-05T04:13:18.721Z,3.10
2023-05-05T04:15:48.919Z,2.60
2023-05-05T04:18:17.581Z,2.80
2023-05-05T04:20:44.741Z,3.00
2023-05-05T04:23:12.494Z,2.53
2023-05-05T04:25:40.804Z,2.70
2023-05-05T04:28:08.037Z,2.87
2023-05-05T04:30:35.471Z,2.83
2023-05-05T04:33:02.899Z,2.60
2023-05-05T04:35:30.776Z,2.67
2023-05-05T04:37:58.445Z,2.43
2023-05-05T04:40:26.442Z,2.83
2023-05-05T04:42:55.016Z,2.90
2023-05-05T04:45:22.395Z,2.80
2023-05-05T04:47:50.131Z,2.90
2023-05-05T04:50:17.440Z,2.80
2023-05-05T04:52:44.594Z,2.80
2023-05-05T04:55:11.822Z,2.80
2023-05-05T04:57:39.247Z,3.17
2023-05-05T05:00:07.877Z,2.80
2023-05-05T05:02:37.666Z,2.70
2023-05-05T05:05:05.324Z,3.00
2023-05-05T05:07:32.639Z,3.00
2023-05-05T05:09:59.881Z,2.90
2023-05-05T05:12:27.095Z,2.90
2023-05-05T05:14:54.452Z,3.30
2023-05-05T05:17:22.631Z,3.13
2023-05-05T05:19:49.992Z,3.20
2023-05-05T05:22:17.099Z,3.40
2023-05-05T05:24:44.530Z,3.40
2023-05-05T05:27:13.821Z,3.50
2023-05-05T05:29:44.620Z,2.93
2023-05-05T05:32:11.789Z,3.60
2023-05-05T05:34:39.275Z,3.40
2023-05-05T05:37:08.430Z,3.30
2023-05-05T05:39:36.595Z,3.40
2023-05-05T05:42:04.209Z,3.40
2023-05-05T05:44:31.364Z,3.40
2023-05-05T05:46:58.931Z,3.60
2023-05-05T05:49:26.012Z,3.40
2023-05-05T05:51:53.635Z,3.50
2023-05-05T05:54:20.848Z,3.60
2023-05-05T05:56:47.960Z,3.33
2023-05-05T05:59:15.073Z,3.53
2023-05-05T06:01:42.236Z,3.37
2023-05-05T06:04:09.593Z,3.50
2023-05-05T06:06:38.325Z,4.20
2023-05-05T06:09:05.854Z,3.90
2023-05-05T06:11:35.122Z,3.60
2023-05-05T06:14:02.845Z,3.50
2023-05-05T06:16:30.164Z,3.33
2023-05-05T06:18:59.649Z,3.00
2023-05-05T06:21:27.942Z,3.00
2023-05-05T06:23:55.425Z,3.00
2023-05-05T06:26:22.741Z,3.07
2023-05-05T06:28:49.812Z,2.90
2023-05-05T06:31:17.564Z,3.07
2023-05-05T06:33:44.724Z,3.07
2023-05-05T06:36:11.887Z,3.17
2023-05-05T06:38:38.992Z,3.47
2023-05-05T06:41:06.685Z,3.37
2023-05-05T06:43:33.777Z,3.10
2023-05-05T06:46:06.536Z,3.30
2023-05-05T06:48:33.670Z,3.10
2023-05-05T06:51:00.777Z,3.10
2023-05-05T06:53:27.887Z,2.90
2023-05-05T06:55:54.986Z,3.23
2023-05-05T06:58:22.116Z,3.20
2023-05-05T07:00:49.199Z,3.07
2023-05-05T07:03:16.621Z,2.87
2023-05-05T07:05:43.868Z,3.20
2023-05-05T07:08:11.483Z,3.20
2023-05-05T07:10:39.011Z,3.30
2023-05-05T07:13:08.161Z,3.20
2023-05-05T07:15:35.390Z,3.00
2023-05-05T07:18:02.565Z,2.93
2023-05-05T07:20:29.703Z,3.13
2023-05-05T07:22:56.787Z,3.00
2023-05-05T07:25:24.003Z,3.43
2023-05-05T07:27:51.275Z,3.10
2023-05-05T07:30:19.306Z,3.50
2023-05-05T07:32:47.051Z,3.67
2023-05-05T07:35:14.198Z,3.03
2023-05-05T07:37:41.476Z,3.10
2023-05-05T07:40:09.302Z,3.10
2023-05-05T07:42:36.684Z,2.90
2023-05-05T07:45:04.601Z,3.10
2023-05-05T07:47:32.316Z,3.13
2023-05-05T07:49:59.418Z,2.80
2023-05-05T07:52:43.390Z,3.00
2023-05-05T07:55:13.531Z,3.50
2023-05-05T07:57:40.711Z,3.20
2023-05-05T08:00:09.536Z,3.23
2023-05-05T08:02:40.326Z,3.30
2023-05-05T08:05:08.413Z,3.27
2023-05-05T08:07:38.301Z,3.20
2023-05-05T08:10:05.861Z,3.60
2023-05-05T08:12:32.953Z,3.10
2023-05-05T08:15:00.084Z,3.13
2023-05-05T08:17:27.284Z,3.50
2023-05-05T08:19:54.501Z,3.13
2023-05-05T08:22:22.330Z,3.27
2023-05-05T08:24:49.528Z,3.20
2023-05-05T08:27:16.614Z,3.33
2023-05-05T08:29:43.651Z,3.50
2023-05-05T08:32:10.854Z,3.57
2023-05-05T08:34:37.952Z,3.57
2023-05-05T08:37:05.028Z,3.77
2023-05-05T08:39:32.160Z,3.40
2023-05-05T08:41:59.276Z,3.80
2023-05-05T08:44:27.325Z,4.00
2023-05-05T08:46:55.652Z,4.37
2023-05-05T08:49:23.911Z,4.20
2023-05-05T08:51:52.318Z,4.30
2023-05-05T08:54:20.904Z,4.10
2023-05-05T08:56:51.594Z,4.10
2023-05-05T08:59:21.115Z,4.23
2023-05-05T09:01:48.714Z,4.00
2023-05-05T09:04:16.478Z,4.10
2023-05-05T09:06:43.653Z,4.40
2023-05-05T09:09:10.875Z,4.53
2023-05-05T09:11:39.326Z,4.90
2023-05-05T09:14:06.475Z,4.90
2023-05-05T09:16:33.686Z,4.83
2023-05-05T09:19:04.709Z,4.53
2023-05-05T09:21:32.460Z,4.37
2023-05-05T09:24:09.252Z,4.75
2023-05-05T09:26:39.289Z,4.40
2023-05-05T09:29:06.605Z,4.95
2023-05-05T09:31:35.150Z,4.68
2023-05-05T09:34:13.253Z,5.03
2023-05-05T09:36:48.204Z,5.10
2023-05-05T09:39:19.868Z,4.47
2023-05-05T09:41:47.435Z,4.10
2023-05-05T09:44:18.197Z,4.20
2023-05-05T09:46:53.237Z,3.88
2023-05-05T09:49:26.810Z,4.45
2023-05-05T09:51:54.810Z,3.90
2023-05-05T09:54:22.480Z,4.28
2023-05-05T09:56:50.830Z,4.47
2023-05-05T09:59:18.098Z,4.45
2023-05-05T10:01:45.289Z,4.30
2023-05-05T10:04:26.189Z,4.60
2023-05-05T10:06:54.344Z,4.40
2023-05-05T10:09:21.514Z,4.50
2023-05-05T10:11:48.940Z,4.65
2023-05-05T10:14:20.324Z,4.38
2023-05-05T10:16:50.763Z,4.30
2023-05-05T10:19:20.533Z,4.60
2023-05-05T10:21:51.870Z,4.63
2023-05-05T10:24:36.296Z,5.00
2023-05-05T10:27:20.607Z,4.93
2023-05-05T10:30:19.868Z,5.20
2023-05-05T10:33:00.825Z,5.28
2023-05-05T10:35:40.265Z,5.45
2023-05-05T10:38:09.875Z,4.93
2023-05-05T10:40:37.130Z,5.13
2023-05-05T10:43:04.661Z,5.47
2023-05-05T10:45:31.992Z,5.28
2023-05-05T10:48:03.035Z,4.80
2023-05-05T10:50:36.909Z,5.25
2023-05-05T10:53:24.182Z,6.15
2023-05-05T10:55:56.859Z,5.05
2023-05-05T10:58:51.126Z,5.28
2023-05-05T11:01:35.647Z,5.55
2023-05-05T11:04:22.506Z,5.78
2023-05-05T11:07:26.173Z,5.28
2023-05-05T11:09:58.341Z,4.90
2023-05-05T11:12:25.776Z,4.97
2023-05-05T11:15:26.951Z,4.72
2023-05-05T11:17:58.192Z,4.72
2023-05-05T11:20:40.498Z,4.68
2023-05-05T11:23:07.716Z,4.35
2023-05-05T11:25:35.329Z,5.63
2023-05-05T11:28:17.242Z,4.90
2023-05-05T11:30:57.174Z,5.00
2023-05-05T11:33:31.571Z,4.28
2023-05-05T11:36:05.980Z,5.43
2023-05-05T11:38:39.564Z,4.75
2023-05-05T11:41:32.032Z,4.65
2023-05-05T11:44:13.399Z,4.85
2023-05-05T11:47:01.318Z,4.85
2023-05-05T11:49:35.330Z,5.43
2023-05-05T11:52:20.732Z,4.90
2023-05-05T11:54:49.137Z,5.35
2023-05-05T11:57:21.888Z,5.13
2023-05-05T11:59:56.287Z,5.40
2023-05-05T12:02:24.240Z,5.78
2023-05-05T12:04:51.753Z,5.30
2023-05-05T12:07:20.487Z,5.45
2023-05-05T12:09:48.957Z,5.32
2023-05-05T12:12:16.740Z,4.55
2023-05-05T12:14:52.602Z,4.50
2023-05-05T12:17:21.534Z,4.13
2023-05-05T12:19:50.901Z,4.18
2023-05-05T12:22:25.822Z,4.47
2023-05-05T12:24:57.872Z,4.30
2023-05-05T12:27:26.627Z,5.05
2023-05-05T12:29:55.301Z,5.03
2023-05-05T12:32:28.017Z,5.13
2023-05-05T12:34:57.623Z,4.35
2023-05-05T12:37:26.125Z,3.90
2023-05-05T12:39:56.407Z,3.80
2023-05-05T12:42:23.838Z,4.07
2023-05-05T12:44:51.077Z,4.97
2023-05-05T12:47:32.396Z,4.03
2023-05-05T12:50:00.810Z,4.40
2023-05-05T12:52:44.735Z,4.90
2023-05-05T12:55:12.461Z,4.57
2023-05-05T12:57:58.015Z,4.13
2023-05-05T13:00:25.829Z,3.75
2023-05-05T13:02:53.360Z,3.47
2023-05-05T13:05:41.290Z,3.90
2023-05-05T13:08:08.534Z,3.58
2023-05-05T13:10:36.280Z,4.15
2023-05-05T13:13:04.683Z,4.03
2023-05-05T13:15:33.977Z,4.53
2023-05-05T13:18:01.707Z,4.10
2023-05-05T13:20:29.698Z,3.75
2023-05-05T13:22:57.444Z,3.58
2023-05-05T13:25:24.602Z,4.03
2023-05-05T13:27:51.744Z,3.78
2023-05-05T13:30:19.053Z,3.50
2023-05-05T13:32:46.440Z,4.00
2023-05-05T13:35:15.985Z,3.60
2023-05-05T13:37:44.409Z,3.85
2023-05-05T13:40:13.406Z,4.43
2023-05-05T13:42:40.636Z,3.97
2023-05-05T13:45:10.787Z,3.40
2023-05-05T13:47:38.614Z,3.40
2023-05-05T13:50:06.333Z,3.20
2023-05-05T13:52:33.718Z,3.50
2023-05-05T13:55:01.075Z,3.47
